Time;durP1;ratioP1;P1;durP2;ratioP2;P2;SDS_P1;SDS_P2;PMS_P1;PMS_P2;Temp;Humidity;BMP_temperature;BMP_pressure;BME280_temperature;BME280_humidity;BME280_pressure;Samples;Min_cycle;Max_cycle;Signal;HPM_P1;HPM_P2
2024/04/25 00:02:14;;;;;;;222.30;25.10;;;;;;;;;;777234;179;696577;-71
2024/04/25 00:04:40;;;;;;;175.53;20.80;;;;;;;;;;770850;179;816945;-72
2024/04/25 00:07:06;;;;;;;176.43;26.93;;;;;;;;;;773217;179;817007;-73
2024/04/25 00:09:32;;;;;;;257.57;25.93;;;;;;;;;;758965;183;693814;-73
2024/04/25 00:11:58;;;;;;;317.53;28.50;;;;;;;;;;765941;182;717559;-73
2024/04/25 00:14:24;;;;;;;141.97;21.27;;;;;;;;;;771163;180;812764;-73
2024/04/25 00:16:50;;;;;;;211.57;26.23;;;;;;;;;;771369;179;713575;-74
2024/04/25 00:19:15;;;;;;;225.47;24.17;;;;;;;;;;778133;179;775341;-73
2024/04/25 00:21:41;;;;;;;63.77;18.30;;;;;;;;;;771419;179;816007;-73
2024/04/25 00:24:07;;;;;;;221.10;23.20;;;;;;;;;;773844;179;712167;-72
2024/04/25 00:26:33;;;;;;;392.83;31.07;;;;;;;;;;774252;180;839553;-73
2024/04/25 00:28:59;;;;;;;320.57;30.40;;;;;;;;;;766933;180;732405;-73
2024/04/25 00:31:25;;;;;;;301.00;29.60;;;;;;;;;;769320;180;803585;-72
2024/04/25 00:33:50;;;;;;;294.53;28.37;;;;;;;;;;771251;179;636548;-73
2024/04/25 00:36:16;;;;;;;389.00;32.53;;;;;;;;;;770324;180;919412;-72
2024/04/25 00:38:42;;;;;;;360.37;29.00;;;;;;;;;;767347;180;797208;-73
2024/04/25 00:41:08;;;;;;;321.90;29.30;;;;;;;;;;769469;180;817414;-72
2024/04/25 00:43:34;;;;;;;316.03;26.77;;;;;;;;;;773080;180;628501;-74
2024/04/25 00:46:00;;;;;;;194.03;24.20;;;;;;;;;;768505;180;820489;-73
2024/04/25 00:48:28;;;;;;;326.20;27.30;;;;;;;;;;768104;179;782915;-73
2024/04/25 00:50:54;;;;;;;256.80;24.70;;;;;;;;;;767642;181;701371;-73
2024/04/25 00:53:20;;;;;;;334.85;27.87;;;;;;;;;;770130;180;764447;-73
2024/04/25 00:55:46;;;;;;;168.13;20.27;;;;;;;;;;767409;180;808837;-73
2024/04/25 00:58:12;;;;;;;224.20;23.30;;;;;;;;;;772212;180;921431;-73
2024/04/25 01:00:38;;;;;;;215.90;22.27;;;;;;;;;;767713;179;764974;-73
2024/04/25 01:03:03;;;;;;;36.20;15.13;;;;;;;;;;772986;180;628315;-75
2024/04/25 01:05:29;;;;;;;94.00;18.60;;;;;;;;;;771216;180;661115;-74
2024/04/25 01:07:55;;;;;;;108.00;17.87;;;;;;;;;;770959;180;814402;-71
2024/04/25 01:10:21;;;;;;;69.57;17.80;;;;;;;;;;771622;180;742870;-72
2024/04/25 01:12:47;;;;;;;68.53;17.60;;;;;;;;;;773667;179;817278;-72
2024/04/25 01:15:13;;;;;;;32.03;16.50;;;;;;;;;;774953;179;675598;-73
2024/04/25 01:17:38;;;;;;;41.40;16.73;;;;;;;;;;766018;180;812529;-72
2024/04/25 01:20:06;;;;;;;48.58;17.75;;;;;;;;;;769643;180;818494;-72
2024/04/25 01:22:30;;;;;;;82.43;18.20;;;;;;;;;;773100;179;740937;-72
2024/04/25 01:24:56;;;;;;;125.73;19.83;;;;;;;;;;771934;179;767164;-71
2024/04/25 01:27:22;;;;;;;94.53;19.70;;;;;;;;;;772977;179;698849;-72
2024/04/25 01:29:48;;;;;;;144.87;20.90;;;;;;;;;;769459;180;842353;-74
2024/04/25 01:32:14;;;;;;;103.60;18.47;;;;;;;;;;772156;179;617173;-72
2024/04/25 01:34:39;;;;;;;88.63;17.43;;;;;;;;;;769518;180;812244;-73
2024/04/25 01:44:59;;;;;;;150.48;22.33;;;;;;;;;;787804;173;804212;-72
2024/04/25 01:47:25;;;;;;;98.60;18.23;;;;;;;;;;760068;179;918175;-72
2024/04/25 01:49:50;;;;;;;150.67;19.93;;;;;;;;;;754364;184;842038;-73
2024/04/25 01:52:16;;;;;;;159.47;20.90;;;;;;;;;;757492;184;760339;-72
2024/04/25 01:54:42;;;;;;;73.27;16.90;;;;;;;;;;754608;184;715015;-71
2024/04/25 01:57:08;;;;;;;180.83;20.07;;;;;;;;;;765989;183;712332;-71
2024/04/25 01:59:34;;;;;;;104.87;18.50;;;;;;;;;;771520;182;815683;-72
2024/04/25 02:02:00;;;;;;;74.67;16.70;;;;;;;;;;761820;183;801201;-72
2024/04/25 02:04:26;;;;;;;115.12;18.60;;;;;;;;;;765344;182;918705;-73
2024/04/25 02:06:52;;;;;;;147.67;18.47;;;;;;;;;;767437;183;716063;-72
2024/04/25 02:09:18;;;;;;;137.73;21.27;;;;;;;;;;773040;182;794929;-72
2024/04/25 02:11:43;;;;;;;162.07;19.57;;;;;;;;;;770941;182;634109;-73
2024/04/25 02:14:09;;;;;;;93.17;19.00;;;;;;;;;;762629;182;917283;-71
2024/04/25 02:16:35;;;;;;;130.87;21.07;;;;;;;;;;773294;182;816257;-73
2024/04/25 02:19:01;;;;;;;118.63;19.00;;;;;;;;;;769712;182;814736;-71
2024/04/25 02:26:30;;;;;;;131.47;19.63;;;;;;;;;;766253;182;1748381;-74
2024/04/25 02:28:56;;;;;;;191.73;22.23;;;;;;;;;;769708;182;697224;-73
2024/04/25 02:31:28;;;;;;;90.67;18.37;;;;;;;;;;761792;182;799682;-74
2024/04/25 02:33:48;;;;;;;141.83;20.80;;;;;;;;;;772317;182;633467;-73
2024/04/25 02:36:14;;;;;;;223.20;22.27;;;;;;;;;;764329;183;816306;-73
2024/04/25 02:38:40;;;;;;;131.50;18.77;;;;;;;;;;765864;183;794093;-73
2024/04/25 02:41:05;;;;;;;203.53;22.50;;;;;;;;;;768153;182;714691;-72
2024/04/25 02:43:31;;;;;;;182.83;20.20;;;;;;;;;;770547;180;810987;-74
2024/04/25 02:45:57;;;;;;;169.50;21.30;;;;;;;;;;767602;183;712786;-72
2024/04/25 02:48:23;;;;;;;140.93;20.30;;;;;;;;;;768302;180;813974;-73
2024/04/25 02:50:49;;;;;;;109.10;19.20;;;;;;;;;;769604;183;723558;-73
2024/04/25 02:53:15;;;;;;;67.95;17.40;;;;;;;;;;766667;182;716194;-74
2024/04/25 02:55:40;;;;;;;110.83;20.20;;;;;;;;;;766877;182;793755;-73
2024/04/25 02:58:06;;;;;;;168.10;20.90;;;;;;;;;;773349;182;816721;-73
2024/04/25 03:00:32;;;;;;;134.00;20.57;;;;;;;;;;771199;182;617014;-74
2024/04/25 03:02:58;;;;;;;106.50;19.57;;;;;;;;;;764580;182;918469;-74
2024/04/25 03:05:24;;;;;;;75.47;18.67;;;;;;;;;;769506;182;716876;-74
2024/04/25 03:07:50;;;;;;;74.97;21.10;;;;;;;;;;766487;180;809113;-73
2024/04/25 03:10:15;;;;;;;54.40;18.40;;;;;;;;;;767482;182;797290;-73
2024/04/25 03:12:41;;;;;;;58.57;19.67;;;;;;;;;;767271;182;800359;-73
2024/04/25 03:15:07;;;;;;;63.63;20.60;;;;;;;;;;771652;182;617010;-71
2024/04/25 03:17:33;;;;;;;82.97;20.00;;;;;;;;;;768333;180;693961;-72
2024/04/25 03:19:59;;;;;;;38.97;20.47;;;;;;;;;;765491;183;698979;-74
2024/04/25 03:22:25;;;;;;;67.83;21.93;;;;;;;;;;771951;182;803474;-72
2024/04/25 03:24:51;;;;;;;70.30;19.60;;;;;;;;;;765982;182;833831;-74
2024/04/25 03:27:16;;;;;;;93.05;20.75;;;;;;;;;;767657;182;815859;-73
2024/04/25 03:29:42;;;;;;;167.23;21.83;;;;;;;;;;771274;182;919636;-74
2024/04/25 03:32:08;;;;;;;131.20;23.90;;;;;;;;;;767477;182;815658;-73
2024/04/25 03:34:35;;;;;;;216.40;25.10;;;;;;;;;;766505;182;702373;-73
2024/04/25 03:37:00;;;;;;;138.10;22.17;;;;;;;;;;768416;183;713445;-74
2024/04/25 03:39:26;;;;;;;95.43;17.80;;;;;;;;;;768060;181;615475;-72
2024/04/25 03:41:52;;;;;;;201.43;24.30;;;;;;;;;;765448;183;627571;-71
2024/04/25 03:44:18;;;;;;;85.47;19.70;;;;;;;;;;765989;183;704794;-72
2024/04/25 03:46:45;;;;;;;174.60;21.40;;;;;;;;;;771595;182;616355;-74
2024/04/25 03:49:10;;;;;;;175.00;20.67;;;;;;;;;;766818;182;713190;-74
2024/04/25 03:51:36;;;;;;;236.90;23.17;;;;;;;;;;764398;182;712569;-73
2024/04/25 03:54:02;;;;;;;167.17;22.00;;;;;;;;;;773365;180;674459;-74
2024/04/25 03:56:28;;;;;;;207.27;24.50;;;;;;;;;;767325;182;815009;-73
2024/04/25 03:58:53;;;;;;;110.10;20.30;;;;;;;;;;765876;182;760746;-73
2024/04/25 04:01:19;;;;;;;199.03;23.10;;;;;;;;;;768778;183;707064;-73
2024/04/25 04:03:45;;;;;;;152.50;20.97;;;;;;;;;;765994;181;716384;-73
2024/04/25 04:06:11;;;;;;;158.90;21.03;;;;;;;;;;767169;181;716151;-73
2024/04/25 04:08:37;;;;;;;82.70;18.00;;;;;;;;;;770687;182;628818;-72
2024/04/25 04:11:03;;;;;;;81.07;17.43;;;;;;;;;;775696;182;623564;-74
2024/04/25 04:13:29;;;;;;;103.03;18.17;;;;;;;;;;770372;182;641119;-73
2024/04/25 04:15:54;;;;;;;131.43;20.40;;;;;;;;;;770832;182;677485;-73
2024/04/25 04:18:20;;;;;;;120.23;19.20;;;;;;;;;;773541;182;627714;-73
2024/04/25 04:20:48;;;;;;;178.73;38.00;;;;;;;;;;769910;182;644005;-73
2024/04/25 04:23:12;;;;;;;103.23;22.80;;;;;;;;;;769468;181;617198;-73
2024/04/25 04:25:38;;;;;;;116.73;21.40;;;;;;;;;;769894;182;628269;-73
2024/04/25 04:28:04;;;;;;;174.00;22.87;;;;;;;;;;767858;181;688092;-73
2024/04/25 04:30:30;;;;;;;48.33;17.93;;;;;;;;;;767216;182;812500;-73
2024/04/25 04:32:55;;;;;;;101.87;20.07;;;;;;;;;;770363;180;817030;-74
2024/04/25 04:35:21;;;;;;;101.10;20.50;;;;;;;;;;767385;182;690065;-74
2024/04/25 04:37:47;;;;;;;34.83;19.57;;;;;;;;;;766008;182;816511;-74
2024/04/25 04:40:13;;;;;;;36.30;21.40;;;;;;;;;;770777;182;623772;-75
2024/04/25 04:42:39;;;;;;;34.73;21.13;;;;;;;;;;769405;182;625720;-74
2024/04/25 04:45:05;;;;;;;40.30;20.00;;;;;;;;;;763433;183;930484;-73
2024/04/25 04:47:31;;;;;;;43.17;23.23;;;;;;;;;;765410;183;636215;-75
2024/04/25 04:49:57;;;;;;;33.23;19.63;;;;;;;;;;770282;182;715747;-74
2024/04/25 04:52:22;;;;;;;64.13;28.60;;;;;;;;;;765037;182;657926;-75
2024/04/25 04:54:48;;;;;;;98.75;42.08;;;;;;;;;;765312;182;817632;-74
2024/04/25 04:57:14;;;;;;;74.23;38.43;;;;;;;;;;770488;182;778585;-73
2024/04/25 04:59:40;;;;;;;49.57;27.67;;;;;;;;;;768427;182;683519;-73
2024/04/25 05:02:06;;;;;;;38.07;24.40;;;;;;;;;;766153;182;640578;-73
2024/04/25 05:04:32;;;;;;;32.83;19.70;;;;;;;;;;767352;182;915888;-74
2024/04/25 05:06:57;;;;;;;30.57;20.67;;;;;;;;;;766392;182;815268;-74
2024/04/25 05:09:23;;;;;;;38.70;22.50;;;;;;;;;;768122;182;623935;-74
2024/04/25 05:11:49;;;;;;;29.00;18.97;;;;;;;;;;765271;182;910376;-73
2024/04/25 05:14:15;;;;;;;30.30;19.37;;;;;;;;;;770028;182;814247;-72
2024/04/25 05:16:41;;;;;;;31.58;20.80;;;;;;;;;;761965;182;916782;-72
2024/04/25 05:19:07;;;;;;;31.20;21.33;;;;;;;;;;770110;181;716403;-72
2024/04/25 05:21:33;;;;;;;28.37;17.47;;;;;;;;;;772873;182;614444;-72
2024/04/25 05:24:01;;;;;;;27.60;18.93;;;;;;;;;;769200;182;756800;-74
2024/04/25 05:26:27;;;;;;;29.23;19.00;;;;;;;;;;765796;182;705945;-73
2024/04/25 05:28:52;;;;;;;32.30;20.97;;;;;;;;;;772005;182;699856;-72
2024/04/25 05:31:18;;;;;;;30.97;19.67;;;;;;;;;;766045;182;718524;-73
2024/04/25 05:33:45;;;;;;;44.97;24.37;;;;;;;;;;768739;179;938375;-74
2024/04/25 05:36:12;;;;;;;69.50;35.63;;;;;;;;;;769390;182;678184;-72
2024/04/25 05:38:37;;;;;;;35.57;20.67;;;;;;;;;;770317;183;708346;-73
2024/04/25 05:41:03;;;;;;;69.90;40.33;;;;;;;;;;766909;183;815265;-74
2024/04/25 05:43:28;;;;;;;37.83;24.47;;;;;;;;;;765445;182;814833;-73
2024/04/25 05:45:54;;;;;;;27.00;18.30;;;;;;;;;;771167;183;709145;-73
2024/04/25 05:48:20;;;;;;;24.63;16.47;;;;;;;;;;767898;182;644528;-74
2024/04/25 05:50:46;;;;;;;29.70;19.23;;;;;;;;;;762113;182;919121;-72
2024/04/25 05:53:12;;;;;;;27.10;16.87;;;;;;;;;;769833;183;779470;-72
2024/04/25 05:55:39;;;;;;;29.27;18.93;;;;;;;;;;766281;182;716198;-72
2024/04/25 05:58:04;;;;;;;29.20;18.97;;;;;;;;;;766375;182;712424;-71
2024/04/25 06:00:29;;;;;;;35.93;20.03;;;;;;;;;;765024;182;814763;-71
2024/04/25 06:02:56;;;;;;;31.73;18.63;;;;;;;;;;762514;184;714587;-72
2024/04/25 06:05:21;;;;;;;27.27;20.13;;;;;;;;;;765141;183;916519;-72
2024/04/25 06:07:47;;;;;;;31.25;20.20;;;;;;;;;;764679;183;762200;-71
2024/04/25 06:10:13;;;;;;;36.77;25.27;;;;;;;;;;769730;182;666802;-73
2024/04/25 06:12:39;;;;;;;27.40;19.07;;;;;;;;;;767237;182;647255;-72
2024/04/25 06:15:05;;;;;;;30.23;18.83;;;;;;;;;;767370;182;762451;-72
2024/04/25 06:17:31;;;;;;;30.63;19.80;;;;;;;;;;772553;182;617531;-72
2024/04/25 06:19:57;;;;;;;25.90;18.67;;;;;;;;;;768684;182;719565;-72
2024/04/25 06:22:22;;;;;;;29.63;20.30;;;;;;;;;;765751;182;812166;-71
2024/04/25 06:24:48;;;;;;;32.00;20.87;;;;;;;;;;771940;182;711909;-71
2024/04/25 06:27:14;;;;;;;26.83;18.93;;;;;;;;;;765924;182;771750;-75
2024/04/25 06:29:40;;;;;;;25.30;16.20;;;;;;;;;;765820;182;813808;-74
2024/04/25 06:32:06;;;;;;;50.03;27.40;;;;;;;;;;766353;182;630311;-74
2024/04/25 06:34:33;;;;;;;31.30;19.13;;;;;;;;;;764342;183;708913;-75
2024/04/25 06:36:59;;;;;;;30.10;21.40;;;;;;;;;;760306;182;815754;-75
2024/04/25 06:39:23;;;;;;;23.17;16.57;;;;;;;;;;767839;182;712843;-74
2024/04/25 06:41:49;;;;;;;25.90;17.30;;;;;;;;;;770394;182;703429;-75
2024/04/25 06:44:15;;;;;;;25.10;18.60;;;;;;;;;;766005;182;879657;-77
2024/04/25 06:46:41;;;;;;;23.53;17.10;;;;;;;;;;768138;183;614363;-77
2024/04/25 06:49:07;;;;;;;23.53;17.37;;;;;;;;;;772259;181;622195;-77
2024/04/25 06:51:34;;;;;;;23.80;17.70;;;;;;;;;;764407;182;816436;-77
2024/04/25 06:53:58;;;;;;;20.90;15.37;;;;;;;;;;764700;182;707059;-76
2024/04/25 06:56:24;;;;;;;20.60;15.60;;;;;;;;;;770317;182;624751;-74
2024/04/25 06:58:51;;;;;;;21.47;16.23;;;;;;;;;;763676;182;920250;-75
2024/04/25 07:01:16;;;;;;;21.60;16.90;;;;;;;;;;767382;182;823195;-73
2024/04/25 07:03:42;;;;;;;18.90;15.63;;;;;;;;;;768324;182;814646;-74
2024/04/25 07:06:08;;;;;;;18.75;14.40;;;;;;;;;;769579;183;890816;-75
2024/04/25 07:08:33;;;;;;;20.53;16.90;;;;;;;;;;768406;182;631160;-74
2024/04/25 07:10:59;;;;;;;19.17;16.10;;;;;;;;;;765502;182;768895;-75
2024/04/25 07:13:25;;;;;;;19.83;15.57;;;;;;;;;;768014;183;886954;-74
2024/04/25 07:15:52;;;;;;;19.13;15.03;;;;;;;;;;765896;182;816151;-73
2024/04/25 07:18:17;;;;;;;23.63;15.37;;;;;;;;;;764965;181;791959;-73
2024/04/25 07:20:43;;;;;;;19.57;14.97;;;;;;;;;;771946;183;624340;-74
2024/04/25 07:23:08;;;;;;;15.83;13.03;;;;;;;;;;765324;182;716627;-75
2024/04/25 07:25:34;;;;;;;19.40;15.00;;;;;;;;;;765989;182;711838;-75
2024/04/25 07:28:01;;;;;;;20.57;15.30;;;;;;;;;;769873;182;768796;-76
2024/04/25 07:30:26;;;;;;;16.03;13.57;;;;;;;;;;752771;184;705143;-75
2024/04/25 07:32:52;;;;;;;17.33;12.53;;;;;;;;;;753793;181;813714;-76
2024/04/25 07:35:18;;;;;;;14.43;12.10;;;;;;;;;;750639;185;637622;-76
2024/04/25 07:37:44;;;;;;;16.77;12.57;;;;;;;;;;770901;182;613053;-75
2024/04/25 07:40:10;;;;;;;16.83;12.77;;;;;;;;;;767080;182;746370;-75
2024/04/25 07:42:36;;;;;;;21.80;13.33;;;;;;;;;;768507;179;815274;-76
2024/04/25 07:45:01;;;;;;;15.40;13.60;;;;;;;;;;768955;182;913618;-74
2024/04/25 07:47:27;;;;;;;14.87;12.70;;;;;;;;;;767685;182;660048;-75
2024/04/25 07:49:53;;;;;;;15.57;12.73;;;;;;;;;;766180;182;710676;-74
2024/04/25 07:52:19;;;;;;;14.67;11.80;;;;;;;;;;770339;182;756378;-74
2024/04/25 07:54:47;;;;;;;15.30;11.77;;;;;;;;;;766471;183;919064;-76
2024/04/25 07:57:11;;;;;;;15.60;11.83;;;;;;;;;;767490;182;894633;-73
2024/04/25 07:59:37;;;;;;;19.13;12.90;;;;;;;;;;767460;183;810505;-76
2024/04/25 08:02:02;;;;;;;16.20;12.13;;;;;;;;;;760472;183;814621;-75
2024/04/25 08:04:28;;;;;;;15.87;12.57;;;;;;;;;;763432;182;663358;-75
2024/04/25 08:06:54;;;;;;;14.90;11.17;;;;;;;;;;768882;182;657630;-76
2024/04/25 08:09:20;;;;;;;15.47;12.03;;;;;;;;;;773824;183;649263;-75
2024/04/25 08:11:46;;;;;;;17.37;14.30;;;;;;;;;;766240;182;633884;-75
2024/04/25 08:14:12;;;;;;;19.97;15.60;;;;;;;;;;766052;183;804011;-76
2024/04/25 08:16:38;;;;;;;14.70;12.23;;;;;;;;;;771050;182;715337;-75
2024/04/25 08:19:03;;;;;;;18.30;11.33;;;;;;;;;;767246;182;713172;-75
2024/04/25 08:21:29;;;;;;;17.00;12.75;;;;;;;;;;766745;182;830917;-75
2024/04/25 08:23:55;;;;;;;18.17;12.60;;;;;;;;;;770816;182;634768;-76
2024/04/25 08:26:23;;;;;;;12.73;10.60;;;;;;;;;;770302;182;647316;-75
2024/04/25 08:28:48;;;;;;;12.17;10.43;;;;;;;;;;766957;183;616582;-73
2024/04/25 08:31:14;;;;;;;14.37;11.73;;;;;;;;;;767599;182;720140;-75
2024/04/25 08:33:40;;;;;;;14.97;10.67;;;;;;;;;;770771;182;919296;-72
2024/04/25 08:36:06;;;;;;;11.43;9.80;;;;;;;;;;766588;182;818311;-74
2024/04/25 08:38:34;;;;;;;16.67;10.80;;;;;;;;;;765877;180;817307;-74
2024/04/25 08:40:58;;;;;;;13.13;9.60;;;;;;;;;;770998;183;713821;-74
2024/04/25 08:43:23;;;;;;;12.27;9.57;;;;;;;;;;766786;182;721718;-74
2024/04/25 08:45:50;;;;;;;15.00;11.00;;;;;;;;;;765303;182;836846;-74
2024/04/25 08:48:16;;;;;;;12.37;10.27;;;;;;;;;;770950;182;843994;-72
2024/04/25 08:50:42;;;;;;;15.45;9.60;;;;;;;;;;768609;182;813901;-73
2024/04/25 08:53:08;;;;;;;14.33;9.70;;;;;;;;;;770626;181;617895;-72
2024/04/25 08:55:33;;;;;;;15.77;13.30;;;;;;;;;;768635;182;666639;-73
2024/04/25 08:58:01;;;;;;;12.23;8.53;;;;;;;;;;765106;182;779755;-71
2024/04/25 09:00:25;;;;;;;12.07;8.53;;;;;;;;;;768983;182;704231;-72
2024/04/25 09:02:51;;;;;;;13.03;9.87;;;;;;;;;;768003;182;709371;-71
2024/04/25 09:05:17;;;;;;;10.57;9.47;;;;;;;;;;772645;183;816100;-72
2024/04/25 09:07:44;;;;;;;16.23;9.77;;;;;;;;;;768762;182;646706;-74
2024/04/25 09:10:09;;;;;;;10.27;9.13;;;;;;;;;;767421;182;715979;-72
2024/04/25 09:12:35;;;;;;;10.20;7.90;;;;;;;;;;768684;182;819471;-71
2024/04/25 09:15:01;;;;;;;10.77;9.30;;;;;;;;;;769054;182;727468;-72
2024/04/25 09:17:27;;;;;;;12.40;9.40;;;;;;;;;;765585;182;715110;-71
2024/04/25 09:19:52;;;;;;;8.57;7.50;;;;;;;;;;773570;183;624350;-71
2024/04/25 09:22:19;;;;;;;9.23;7.43;;;;;;;;;;766698;182;790498;-73
2024/04/25 09:24:44;;;;;;;8.60;7.23;;;;;;;;;;768659;182;922743;-72
2024/04/25 09:27:10;;;;;;;10.63;7.77;;;;;;;;;;766195;181;819643;-72
2024/04/25 09:29:36;;;;;;;9.73;7.27;;;;;;;;;;772179;183;627390;-72
2024/04/25 09:32:02;;;;;;;10.23;7.00;;;;;;;;;;767370;183;707186;-73
2024/04/25 09:34:28;;;;;;;8.37;7.37;;;;;;;;;;765861;182;792507;-72
2024/04/25 09:36:54;;;;;;;7.80;5.90;;;;;;;;;;772625;183;620624;-72
2024/04/25 09:39:20;;;;;;;7.33;6.17;;;;;;;;;;765559;180;810279;-72
2024/04/25 09:41:46;;;;;;;6.40;5.73;;;;;;;;;;767533;183;796002;-72
2024/04/25 09:44:12;;;;;;;13.67;7.33;;;;;;;;;;773330;180;636089;-73
2024/04/25 09:46:39;;;;;;;11.93;6.47;;;;;;;;;;767483;182;777372;-73
2024/04/25 09:49:04;;;;;;;8.53;6.20;;;;;;;;;;765728;182;822192;-73
2024/04/25 09:51:30;;;;;;;9.48;6.37;;;;;;;;;;768102;183;790094;-74
2024/04/25 09:53:58;;;;;;;7.50;6.00;;;;;;;;;;767263;183;626856;-74
2024/04/25 09:56:24;;;;;;;7.20;6.47;;;;;;;;;;768328;183;633198;-73
2024/04/25 09:58:51;;;;;;;7.60;6.27;;;;;;;;;;767811;182;642881;-74
2024/04/25 10:01:16;;;;;;;8.43;6.40;;;;;;;;;;771090;182;617403;-71
2024/04/25 10:03:42;;;;;;;10.73;5.90;;;;;;;;;;766888;181;814906;-74
2024/04/25 10:06:08;;;;;;;8.13;6.20;;;;;;;;;;768589;182;815769;-73
2024/04/25 10:08:34;;;;;;;7.53;5.83;;;;;;;;;;774411;182;619489;-74
2024/04/25 10:11:00;;;;;;;7.00;5.40;;;;;;;;;;767737;182;722799;-74
2024/04/25 10:13:26;;;;;;;7.83;5.90;;;;;;;;;;767417;182;814602;-74
2024/04/25 10:15:52;;;;;;;9.60;6.20;;;;;;;;;;767588;183;788773;-74
2024/04/25 10:18:17;;;;;;;8.05;5.78;;;;;;;;;;776169;180;700396;-73
2024/04/25 10:20:43;;;;;;;8.00;6.60;;;;;;;;;;764714;182;819694;-74
2024/04/25 10:23:11;;;;;;;6.07;4.83;;;;;;;;;;768877;182;712087;-73
2024/04/25 10:25:36;;;;;;;6.10;4.80;;;;;;;;;;771520;182;774816;-73
2024/04/25 10:28:01;;;;;;;7.33;4.43;;;;;;;;;;764894;182;736828;-74
2024/04/25 10:30:27;;;;;;;7.10;5.93;;;;;;;;;;766982;182;815372;-73
2024/04/25 10:32:53;;;;;;;7.00;5.40;;;;;;;;;;770732;183;709189;-73
2024/04/25 10:35:19;;;;;;;6.90;4.40;;;;;;;;;;769652;182;673353;-73
2024/04/25 10:37:46;;;;;;;7.80;4.10;;;;;;;;;;764559;182;713578;-73
2024/04/25 10:40:12;;;;;;;8.73;5.80;;;;;;;;;;771771;183;709002;-73
2024/04/25 10:42:38;;;;;;;6.67;3.93;;;;;;;;;;760192;182;892543;-73
2024/04/25 10:45:04;;;;;;;5.03;3.70;;;;;;;;;;765004;182;813347;-73
2024/04/25 10:47:30;;;;;;;5.50;4.73;;;;;;;;;;765723;182;813676;-74
2024/04/25 10:49:56;;;;;;;4.00;3.20;;;;;;;;;;769214;182;676713;-74
2024/04/25 10:52:22;;;;;;;6.07;4.33;;;;;;;;;;766197;182;654284;-73
2024/04/25 10:54:48;;;;;;;6.20;4.13;;;;;;;;;;767443;182;819707;-70
2024/04/25 10:57:13;;;;;;;5.23;4.17;;;;;;;;;;769913;181;815932;-73
2024/04/25 10:59:39;;;;;;;5.70;4.53;;;;;;;;;;765780;183;783586;-73
2024/04/25 11:02:05;;;;;;;5.00;4.00;;;;;;;;;;764483;182;814690;-74
2024/04/25 11:04:33;;;;;;;8.27;3.83;;;;;;;;;;774198;182;625099;-72
2024/04/25 11:06:59;;;;;;;5.70;3.60;;;;;;;;;;765489;182;814341;-72
2024/04/25 11:09:24;;;;;;;5.10;3.33;;;;;;;;;;762209;182;734778;-73
2024/04/25 11:11:50;;;;;;;5.90;3.67;;;;;;;;;;768133;182;709422;-74
2024/04/25 11:14:17;;;;;;;5.30;3.97;;;;;;;;;;765073;184;714626;-73
2024/04/25 11:16:42;;;;;;;4.80;3.37;;;;;;;;;;759464;183;750885;-74
2024/04/25 11:19:08;;;;;;;4.73;3.60;;;;;;;;;;771170;182;714053;-73
2024/04/25 11:21:34;;;;;;;5.33;4.10;;;;;;;;;;773278;182;623113;-73
2024/04/25 11:24:00;;;;;;;5.70;3.97;;;;;;;;;;769028;182;903940;-73
2024/04/25 11:26:25;;;;;;;4.57;3.40;;;;;;;;;;769828;182;645686;-74
2024/04/25 11:28:51;;;;;;;5.77;3.80;;;;;;;;;;773289;181;630186;-73
2024/04/25 11:31:17;;;;;;;4.27;3.30;;;;;;;;;;767427;182;817210;-72
2024/04/25 11:33:44;;;;;;;5.57;3.80;;;;;;;;;;764632;182;713149;-71
2024/04/25 11:36:09;;;;;;;4.97;3.70;;;;;;;;;;766558;183;815541;-72
2024/04/25 11:38:35;;;;;;;5.00;3.63;;;;;;;;;;767601;182;775647;-72
2024/04/25 11:41:00;;;;;;;5.70;3.47;;;;;;;;;;766478;182;746414;-73
2024/04/25 11:43:26;;;;;;;6.43;4.90;;;;;;;;;;764865;182;818958;-72
2024/04/25 11:45:52;;;;;;;6.77;4.60;;;;;;;;;;774424;180;624804;-73
2024/04/25 11:48:20;;;;;;;7.50;4.63;;;;;;;;;;765378;183;809178;-73
2024/04/25 11:50:44;;;;;;;7.20;4.50;;;;;;;;;;766801;182;814423;-72
2024/04/25 11:53:10;;;;;;;6.07;3.53;;;;;;;;;;771093;183;633088;-72
2024/04/25 11:55:35;;;;;;;5.13;3.57;;;;;;;;;;762806;183;711022;-73
2024/04/25 11:58:01;;;;;;;5.37;3.87;;;;;;;;;;763859;183;910109;-72
2024/04/25 12:00:27;;;;;;;5.87;3.80;;;;;;;;;;770370;182;711173;-72
2024/04/25 12:02:53;;;;;;;4.97;3.00;;;;;;;;;;767208;182;843004;-73
2024/04/25 12:05:19;;;;;;;5.00;4.40;;;;;;;;;;764671;183;807623;-71
2024/04/25 12:07:45;;;;;;;5.27;3.87;;;;;;;;;;772177;182;713679;-70
2024/04/25 12:10:10;;;;;;;5.40;4.03;;;;;;;;;;767681;182;715256;-70
2024/04/25 12:12:36;;;;;;;6.78;3.97;;;;;;;;;;763243;183;643564;-71
2024/04/25 12:15:05;;;;;;;4.67;3.83;;;;;;;;;;764960;183;814398;-74
2024/04/25 12:17:29;;;;;;;4.90;3.40;;;;;;;;;;769188;182;711862;-73
2024/04/25 12:19:55;;;;;;;4.80;3.80;;;;;;;;;;764454;183;819479;-73
2024/04/25 12:22:21;;;;;;;5.40;3.03;;;;;;;;;;768848;180;619171;-74
2024/04/25 12:24:46;;;;;;;4.37;3.05;;;;;;;;;;773269;182;671230;-71
2024/04/25 12:27:12;;;;;;;7.57;5.70;;;;;;;;;;766137;182;909558;-70
2024/04/25 12:29:38;;;;;;;5.80;4.10;;;;;;;;;;767565;182;785003;-71
2024/04/25 12:32:04;;;;;;;5.63;3.60;;;;;;;;;;774094;182;627667;-72
2024/04/25 12:34:30;;;;;;;5.90;3.47;;;;;;;;;;768518;182;812847;-72
2024/04/25 12:36:56;;;;;;;5.10;3.80;;;;;;;;;;769643;182;688975;-73
2024/04/25 12:39:22;;;;;;;4.75;3.80;;;;;;;;;;769764;182;824171;-74
2024/04/25 12:41:51;;;;;;;4.40;3.20;;;;;;;;;;753152;184;727452;-72
2024/04/25 12:44:14;;;;;;;4.70;3.50;;;;;;;;;;763013;183;892959;-73
2024/04/25 12:46:41;;;;;;;5.07;3.50;;;;;;;;;;768193;182;916667;-73
2024/04/25 12:49:06;;;;;;;5.00;3.60;;;;;;;;;;770013;182;708307;-70
2024/04/25 12:51:31;;;;;;;5.03;2.83;;;;;;;;;;766824;182;677270;-73
2024/04/25 12:53:57;;;;;;;4.90;3.05;;;;;;;;;;767565;181;821433;-72
2024/04/25 12:56:24;;;;;;;4.50;3.00;;;;;;;;;;769608;182;812134;-73
2024/04/25 12:58:49;;;;;;;5.27;2.97;;;;;;;;;;757584;183;641660;-72
2024/04/25 13:01:15;;;;;;;5.30;3.17;;;;;;;;;;765650;183;710548;-72
2024/04/25 13:03:42;;;;;;;6.40;3.10;;;;;;;;;;770052;182;818319;-73
2024/04/25 13:06:06;;;;;;;4.93;3.30;;;;;;;;;;768021;182;716230;-72
2024/04/25 13:08:32;;;;;;;6.40;3.23;;;;;;;;;;767785;182;648615;-72
2024/04/25 13:10:58;;;;;;;6.18;3.78;;;;;;;;;;762360;182;713984;-72
2024/04/25 13:13:26;;;;;;;7.97;5.63;;;;;;;;;;760864;183;815127;-71
2024/04/25 13:15:50;;;;;;;13.27;11.40;;;;;;;;;;761858;183;810112;-72
2024/04/25 13:18:17;;;;;;;6.20;4.33;;;;;;;;;;767915;180;778796;-73
2024/04/25 13:20:41;;;;;;;7.87;6.97;;;;;;;;;;769745;182;637633;-72
2024/04/25 13:23:07;;;;;;;6.57;5.00;;;;;;;;;;766260;182;715002;-72
2024/04/25 13:25:36;;;;;;;6.18;5.40;;;;;;;;;;766825;183;878246;-72
2024/04/25 13:27:59;;;;;;;8.60;4.80;;;;;;;;;;771611;182;671204;-74
2024/04/25 13:30:25;;;;;;;25.53;9.90;;;;;;;;;;766647;182;673074;-71
2024/04/25 13:32:51;;;;;;;6.00;4.30;;;;;;;;;;767308;182;714293;-71
2024/04/25 13:35:16;;;;;;;6.03;4.23;;;;;;;;;;767726;182;708385;-73
2024/04/25 13:37:42;;;;;;;4.90;3.50;;;;;;;;;;764440;180;779116;-72
2024/04/25 13:40:08;;;;;;;7.57;3.40;;;;;;;;;;765143;182;800759;-72
2024/04/25 13:42:35;;;;;;;8.73;4.03;;;;;;;;;;767499;180;857166;-73
2024/04/25 13:45:02;;;;;;;6.07;4.10;;;;;;;;;;764224;183;779513;-72
2024/04/25 13:47:26;;;;;;;5.17;3.40;;;;;;;;;;759742;183;618489;-71
2024/04/25 13:49:52;;;;;;;6.15;3.70;;;;;;;;;;761958;184;656695;-72
2024/04/25 13:52:18;;;;;;;8.30;3.17;;;;;;;;;;766034;181;715114;-71
2024/04/25 13:54:43;;;;;;;4.50;3.53;;;;;;;;;;769190;182;688703;-72
2024/04/25 13:57:09;;;;;;;5.55;3.17;;;;;;;;;;768751;182;913339;-71
2024/04/25 13:59:35;;;;;;;7.53;3.43;;;;;;;;;;770750;182;789666;-72
2024/04/25 14:02:01;;;;;;;4.53;3.17;;;;;;;;;;766930;182;718030;-71
2024/04/25 14:04:27;;;;;;;4.67;3.00;;;;;;;;;;767927;182;918444;-70
2024/04/25 14:06:53;;;;;;;8.30;3.20;;;;;;;;;;772648;182;635829;-72
2024/04/25 14:09:20;;;;;;;4.83;3.23;;;;;;;;;;766702;183;750324;-72
2024/04/25 14:11:45;;;;;;;4.67;3.20;;;;;;;;;;768611;182;739454;-72
2024/04/25 14:14:10;;;;;;;6.47;3.60;;;;;;;;;;765019;182;721055;-72
2024/04/25 14:16:36;;;;;;;4.40;3.00;;;;;;;;;;769669;180;919815;-71